createdAt,value
2022-11-20T00:11:30.874Z,91
2022-11-20T00:21:31.002Z,92
2022-11-20T00:31:31.476Z,92
2022-11-20T00:41:32.292Z,92
2022-11-20T01:21:34.976Z,93
2022-11-20T01:31:35.306Z,93
2022-11-20T01:41:36.092Z,94
2022-11-20T01:51:36.736Z,94
2022-11-20T02:01:36.961Z,94
2022-11-20T02:11:37.111Z,94
2022-11-20T02:21:37.932Z,94
2022-11-20T02:41:39.119Z,95
2022-11-20T02:51:39.573Z,95
2022-11-20T03:01:40.411Z,95
2022-11-20T03:21:41.826Z,95
2022-11-20T03:31:42.607Z,95
2022-11-20T03:41:42.996Z,95
2022-11-20T03:51:43.346Z,96
2022-11-20T04:01:48.248Z,96
2022-11-20T04:11:44.216Z,96
2022-11-20T04:21:45.045Z,96
2022-11-20T04:31:45.785Z,96
2022-11-20T04:41:46.724Z,97
2022-11-20T04:51:47.503Z,97
2022-11-20T05:01:48.175Z,97
2022-11-20T05:11:51.423Z,97
2022-11-20T05:21:49.893Z,97
2022-11-20T05:41:51.078Z,97
2022-11-20T05:51:51.487Z,97
2022-11-20T06:01:51.792Z,97
2022-11-20T06:11:52.418Z,97
2022-11-20T06:21:53.283Z,97
2022-11-20T06:31:54.245Z,97
2022-11-20T06:41:58.711Z,98
2022-11-20T06:51:56.114Z,98
2022-11-20T07:01:56.556Z,98
2022-11-20T07:21:57.994Z,98
2022-11-20T07:31:58.400Z,99
2022-11-20T07:41:59.187Z,99
2022-11-20T07:52:04.326Z,99
2022-11-20T08:02:00.458Z,99
2022-11-20T08:12:01.194Z,99
2022-11-20T08:32:02.122Z,99
2022-11-20T08:42:03.063Z,100
2022-11-20T08:52:03.968Z,100
2022-11-20T09:02:04.974Z,100
2022-11-20T09:12:05.609Z,100
2022-11-20T09:22:06.334Z,100
2022-11-20T09:32:07.113Z,100
2022-11-20T09:42:07.437Z,100
2022-11-20T09:52:07.583Z,100
2022-11-20T10:12:08.496Z,100
2022-11-20T10:32:08.852Z,100
2022-11-20T10:42:09.186Z,99
2022-11-20T10:52:09.494Z,96
2022-11-20T11:02:09.873Z,94
2022-11-20T11:12:10.025Z,93
2022-11-20T11:22:10.124Z,93
2022-11-20T11:32:11.168Z,93
2022-11-20T11:42:11.470Z,92
2022-11-20T11:52:11.829Z,92
2022-11-20T12:02:12.040Z,92
2022-11-20T12:12:12.562Z,91
2022-11-20T12:22:13.160Z,91
2022-11-20T12:32:14.238Z,91
2022-11-20T12:42:14.731Z,89
2022-11-20T13:02:15.829Z,89
2022-11-20T13:12:15.950Z,89
2022-11-20T13:22:16.985Z,89
2022-11-20T13:32:17.280Z,90
2022-11-20T13:42:17.837Z,90
2022-11-20T13:52:18.661Z,90
2022-11-20T14:22:20.828Z,90
2022-11-20T14:32:21.279Z,90
2022-11-20T14:42:21.658Z,91
2022-11-20T14:52:22.639Z,91
2022-11-20T15:02:23.688Z,91
2022-11-20T15:12:24.582Z,92
2022-11-20T15:22:25.564Z,92
2022-11-20T15:32:25.758Z,92
2022-11-20T15:42:26.612Z,93
2022-11-20T15:52:30.472Z,93
2022-11-20T16:12:28.021Z,95
2022-11-20T16:22:28.131Z,96
2022-11-20T16:32:28.505Z,96
2022-11-20T16:42:29.381Z,97
2022-11-20T16:52:30.091Z,97
2022-11-20T17:12:31.395Z,98
2022-11-20T17:32:33.128Z,99
2022-11-20T17:42:33.585Z,100
2022-11-20T17:52:33.958Z,100
2022-11-20T18:02:34.663Z,100
2022-11-20T18:12:35.253Z,100
2022-11-20T18:22:35.373Z,100
2022-11-20T18:32:35.999Z,100
2022-11-20T18:42:36.882Z,100
2022-11-20T18:52:37.598Z,100
2022-11-20T19:02:41.963Z,100
2022-11-20T19:22:39.656Z,100
2022-11-20T19:32:39.827Z,100
2022-11-20T19:42:40.880Z,100
2022-11-20T19:52:41.784Z,100
2022-11-20T20:02:42.299Z,100
2022-11-20T20:12:42.936Z,100
2022-11-20T20:22:43.557Z,100
2022-11-20T20:32:44.125Z,100
2022-11-20T20:42:44.535Z,100
2022-11-20T20:52:45.074Z,100
2022-11-20T21:02:45.608Z,100
2022-11-20T21:12:46.598Z,100
2022-11-20T21:22:47.403Z,100
2022-11-20T21:32:47.603Z,100
2022-11-20T21:52:49.011Z,100
2022-11-20T22:02:49.321Z,100
2022-11-20T22:12:49.781Z,100
2022-11-20T22:22:50.306Z,100
2022-11-20T22:32:51.025Z,100
2022-11-20T22:42:51.387Z,100
2022-11-20T22:52:52.449Z,100
2022-11-20T23:02:53.147Z,100
2022-11-20T23:12:53.804Z,100
2022-11-20T23:22:54.193Z,100
2022-11-20T23:32:54.735Z,100
2022-11-20T23:42:55.055Z,100
2022-11-20T23:43:16.965Z,100
2022-11-20T23:53:00.944Z,100
